createdAt,value
2022-10-25T00:00:43.757Z,14.70
2022-10-25T00:03:11.483Z,14.85
2022-10-25T00:05:39.064Z,14.85
2022-10-25T00:08:05.455Z,14.73
2022-10-25T00:10:31.564Z,14.66
2022-10-25T00:12:57.916Z,14.61
2022-10-25T00:15:24.462Z,14.59
2022-10-25T00:17:50.604Z,14.56
2022-10-25T00:20:17.265Z,14.52
2022-10-25T00:22:43.392Z,14.54
2022-10-25T00:25:10.225Z,14.51
2022-10-25T00:27:36.974Z,14.07
2022-10-25T00:30:05.454Z,14.47
2022-10-25T00:32:33.262Z,14.50
2022-10-25T00:34:59.255Z,14.57
2022-10-25T00:37:25.364Z,14.48
2022-10-25T00:39:51.427Z,14.42
2022-10-25T00:42:23.554Z,14.48
2022-10-25T00:44:52.667Z,14.44
2022-10-25T00:47:21.440Z,14.39
2022-10-25T00:50:05.841Z,14.26
2022-10-25T00:52:35.454Z,14.42
2022-10-25T00:55:02.611Z,14.52
2022-10-25T00:57:36.312Z,14.41
2022-10-25T01:00:05.002Z,14.51
2022-10-25T01:02:31.283Z,13.75
2022-10-25T01:04:57.783Z,14.52
2022-10-25T01:07:23.889Z,14.45
2022-10-25T01:09:59.912Z,14.42
2022-10-25T01:12:27.013Z,14.27
2022-10-25T01:14:53.549Z,14.32
2022-10-25T01:17:41.244Z,14.22
2022-10-25T01:20:28.562Z,14.22
2022-10-25T01:23:31.591Z,14.25
2022-10-25T01:26:36.036Z,13.89
2022-10-25T01:29:32.870Z,14.15
2022-10-25T01:32:20.187Z,14.21
2022-10-25T01:34:51.123Z,14.17
2022-10-25T01:37:29.093Z,13.97
2022-10-25T01:40:24.648Z,14.16
2022-10-25T01:42:56.649Z,14.04
2022-10-25T01:45:41.165Z,14.03
2022-10-25T01:48:21.324Z,14.13
2022-10-25T01:50:47.644Z,14.09
2022-10-25T01:53:15.117Z,14.15
2022-10-25T01:55:49.207Z,14.15
2022-10-25T01:58:45.556Z,13.81
2022-10-25T02:01:57.432Z,13.87
2022-10-25T02:04:51.104Z,13.89
2022-10-25T02:07:28.181Z,13.54
2022-10-25T02:10:16.043Z,13.79
2022-10-25T02:13:21.871Z,13.81
2022-10-25T02:15:55.801Z,13.69
2022-10-25T02:18:25.679Z,13.76
2022-10-25T02:20:52.406Z,13.10
2022-10-25T02:23:20.077Z,13.64
2022-10-25T02:25:46.961Z,13.35
2022-10-25T02:28:15.466Z,13.76
2022-10-25T02:30:43.404Z,13.73
2022-10-25T02:33:10.062Z,13.63
2022-10-25T02:35:36.268Z,13.65
2022-10-25T02:38:02.641Z,13.67
2022-10-25T02:40:28.977Z,13.64
2022-10-25T02:42:54.977Z,13.62
2022-10-25T02:45:21.072Z,13.68
2022-10-25T02:47:47.422Z,13.43
2022-10-25T02:50:13.809Z,13.15
2022-10-25T02:52:39.833Z,12.48
2022-10-25T02:55:06.257Z,13.47
2022-10-25T02:57:33.988Z,13.61
2022-10-25T03:00:00.137Z,13.61
2022-10-25T03:02:26.529Z,13.55
2022-10-25T03:04:52.549Z,13.48
2022-10-25T03:07:18.624Z,12.21
2022-10-25T03:09:44.627Z,13.40
2022-10-25T03:12:10.608Z,13.51
2022-10-25T03:14:36.619Z,13.06
2022-10-25T03:17:02.690Z,13.53
2022-10-25T03:19:28.732Z,13.44
2022-10-25T03:21:54.755Z,13.52
2022-10-25T03:24:20.777Z,13.54
2022-10-25T03:26:46.788Z,13.51
2022-10-25T03:29:12.821Z,13.59
2022-10-25T03:31:39.361Z,13.64
2022-10-25T03:34:05.422Z,13.29
2022-10-25T03:36:31.513Z,13.31
2022-10-25T03:38:57.510Z,13.47
2022-10-25T03:41:23.844Z,13.25
2022-10-25T03:43:49.851Z,13.45
2022-10-25T03:46:15.838Z,13.60
2022-10-25T03:48:41.892Z,13.56
2022-10-25T03:51:07.945Z,13.50
2022-10-25T03:53:34.044Z,13.49
2022-10-25T03:56:00.100Z,13.52
2022-10-25T03:58:26.153Z,13.57
2022-10-25T04:00:52.207Z,13.28
2022-10-25T04:03:18.238Z,13.56
2022-10-25T04:05:44.547Z,13.64
2022-10-25T04:08:10.580Z,13.57
2022-10-25T04:10:36.595Z,13.53
2022-10-25T04:13:02.938Z,13.57
2022-10-25T04:15:29.007Z,13.55
2022-10-25T04:17:55.066Z,13.52
2022-10-25T04:20:21.388Z,13.09
2022-10-25T04:22:54.846Z,13.52
2022-10-25T04:25:21.333Z,13.43
2022-10-25T04:27:47.805Z,13.44
2022-10-25T04:30:14.296Z,13.53
2022-10-25T04:32:40.346Z,13.47
2022-10-25T04:35:06.787Z,12.89
2022-10-25T04:37:32.845Z,13.63
2022-10-25T04:39:58.893Z,13.60
2022-10-25T04:42:24.883Z,13.60
2022-10-25T04:44:50.870Z,13.58
2022-10-25T04:47:16.943Z,13.35
2022-10-25T04:49:42.966Z,9.71
2022-10-25T04:52:08.987Z,13.31
2022-10-25T04:54:35.000Z,13.62
2022-10-25T04:57:01.078Z,13.54
2022-10-25T04:59:27.078Z,12.73
2022-10-25T05:01:53.087Z,13.59
2022-10-25T05:04:19.230Z,13.51
2022-10-25T05:06:45.319Z,13.58
2022-10-25T05:09:11.322Z,13.24
2022-10-25T05:14:08.256Z,12.85
2022-10-25T05:16:34.636Z,13.48
2022-10-25T05:19:02.289Z,13.64
2022-10-25T05:21:29.842Z,13.61
2022-10-25T05:24:00.644Z,13.18
2022-10-25T05:26:29.248Z,13.51
2022-10-25T05:28:56.213Z,13.39
2022-10-25T05:31:24.294Z,13.17
2022-10-25T05:33:53.223Z,13.50
2022-10-25T05:36:20.080Z,13.44
2022-10-25T05:38:46.259Z,13.40
2022-10-25T05:41:13.706Z,13.44
2022-10-25T05:43:40.236Z,13.43
2022-10-25T05:46:08.595Z,12.88
2022-10-25T05:48:36.029Z,13.56
2022-10-25T05:51:32.308Z,13.40
2022-10-25T05:54:01.676Z,13.44
2022-10-25T05:56:28.714Z,9.91
2022-10-25T05:58:57.632Z,13.47
2022-10-25T06:01:25.614Z,13.49
2022-10-25T06:03:53.180Z,13.34
2022-10-25T06:06:19.610Z,12.40
2022-10-25T06:08:45.821Z,13.47
2022-10-25T06:11:15.544Z,13.52
2022-10-25T06:13:41.629Z,13.51
2022-10-25T06:16:11.614Z,13.65
2022-10-25T06:18:38.152Z,13.60
2022-10-25T06:21:18.985Z,12.33
2022-10-25T06:23:45.693Z,13.52
2022-10-25T06:26:20.205Z,13.50
2022-10-25T06:28:46.511Z,13.34
2022-10-25T06:31:14.768Z,13.18
2022-10-25T06:33:41.256Z,13.52
2022-10-25T06:36:14.306Z,13.13
2022-10-25T06:38:40.356Z,13.56
2022-10-25T06:41:10.780Z,12.90
2022-10-25T06:43:38.100Z,13.41
2022-10-25T06:46:19.598Z,13.47
2022-10-25T06:48:45.649Z,13.38
2022-10-25T06:51:11.671Z,13.42
2022-10-25T06:53:38.125Z,13.45
2022-10-25T06:56:08.063Z,13.38
2022-10-25T06:58:36.031Z,13.42
2022-10-25T07:01:11.457Z,13.48
2022-10-25T07:03:37.774Z,12.56
2022-10-25T07:06:12.259Z,13.33
2022-10-25T07:08:40.263Z,12.95
2022-10-25T07:11:07.012Z,12.48
2022-10-25T07:13:33.697Z,13.38
2022-10-25T07:16:03.875Z,12.30
2022-10-25T07:18:30.806Z,13.36
2022-10-25T07:21:00.882Z,12.44
2022-10-25T07:23:27.868Z,13.38
2022-10-25T07:25:53.973Z,13.29
2022-10-25T07:28:20.419Z,13.28
2022-10-25T07:30:47.109Z,13.42
2022-10-25T07:33:14.303Z,13.30
2022-10-25T07:35:52.572Z,13.14
2022-10-25T07:38:29.972Z,13.11
2022-10-25T07:40:57.099Z,13.26
2022-10-25T07:43:24.595Z,12.20
2022-10-25T07:45:50.649Z,13.36
2022-10-25T07:48:16.655Z,13.57
2022-10-25T07:50:42.753Z,13.58
2022-10-25T07:53:08.750Z,13.46
2022-10-25T07:55:34.982Z,13.40
2022-10-25T07:58:04.974Z,13.36
2022-10-25T08:00:31.232Z,13.13
2022-10-25T08:02:57.316Z,13.49
2022-10-25T08:05:23.416Z,13.73
2022-10-25T08:07:50.195Z,13.52
2022-10-25T08:10:19.729Z,13.60
2022-10-25T08:12:46.690Z,13.58
2022-10-25T08:15:12.904Z,13.77
2022-10-25T08:17:38.939Z,13.71
2022-10-25T08:20:05.426Z,13.65
2022-10-25T08:22:31.488Z,13.68
2022-10-25T08:24:57.982Z,12.60
2022-10-25T08:27:24.011Z,13.85
2022-10-25T08:29:50.035Z,14.01
2022-10-25T08:32:16.077Z,13.83
2022-10-25T08:34:42.148Z,13.49
2022-10-25T08:37:11.071Z,14.30
2022-10-25T08:39:37.131Z,14.55
2022-10-25T08:42:03.618Z,10.99
2022-10-25T08:44:53.076Z,14.10
2022-10-25T08:47:26.462Z,14.23
2022-10-25T08:49:57.159Z,14.36
2022-10-25T08:52:31.004Z,14.23
2022-10-25T08:55:00.435Z,14.66
2022-10-25T08:57:33.831Z,14.72
2022-10-25T09:00:16.617Z,14.49
2022-10-25T09:02:48.108Z,14.51
2022-10-25T09:05:20.203Z,14.78
2022-10-25T09:08:01.468Z,14.84
2022-10-25T09:10:50.653Z,14.79
2022-10-25T09:13:54.254Z,14.70
2022-10-25T09:16:34.365Z,14.44
2022-10-25T09:19:01.631Z,15.17
2022-10-25T09:21:39.836Z,15.07
2022-10-25T09:24:27.144Z,14.98
2022-10-25T09:27:06.948Z,14.74
2022-10-25T09:29:36.832Z,14.81
2022-10-25T09:32:07.468Z,14.74
2022-10-25T09:34:33.566Z,14.69
2022-10-25T09:37:24.106Z,14.99
2022-10-25T09:39:53.141Z,15.68
2022-10-25T09:42:24.635Z,15.76
2022-10-25T09:45:00.246Z,16.39
2022-10-25T09:47:42.200Z,16.63
2022-10-25T09:50:24.710Z,16.04
2022-10-25T09:53:09.154Z,16.38
2022-10-25T09:55:37.057Z,16.71
2022-10-25T09:58:03.201Z,16.55
2022-10-25T10:00:29.415Z,16.80
2022-10-25T10:02:55.731Z,15.31
2022-10-25T10:05:21.957Z,16.04
2022-10-25T10:07:49.571Z,16.05
2022-10-25T10:10:18.719Z,16.25
2022-10-25T10:13:05.913Z,16.71
2022-10-25T10:15:38.057Z,16.69
2022-10-25T10:18:24.535Z,16.16
2022-10-25T10:21:00.047Z,16.96
2022-10-25T10:23:28.308Z,16.56
2022-10-25T10:25:54.707Z,16.53
2022-10-25T10:28:21.094Z,16.14
2022-10-25T10:30:54.798Z,16.65
2022-10-25T10:33:21.777Z,16.37
2022-10-25T10:35:47.801Z,15.93
2022-10-25T10:38:18.924Z,16.08
2022-10-25T10:40:47.924Z,14.80
2022-10-25T10:43:23.902Z,16.05
2022-10-25T10:45:50.873Z,14.76
2022-10-25T10:48:22.081Z,16.17
2022-10-25T10:50:49.578Z,16.02
2022-10-25T10:53:21.433Z,15.96
2022-10-25T10:55:52.398Z,15.88
2022-10-25T10:58:24.756Z,15.96
2022-10-25T11:00:59.674Z,15.91
2022-10-25T11:03:48.851Z,16.07
2022-10-25T11:06:33.468Z,15.19
2022-10-25T11:09:12.146Z,16.16
2022-10-25T11:11:39.572Z,15.97
2022-10-25T11:14:13.398Z,15.79
2022-10-25T11:16:52.960Z,16.08
2022-10-25T11:19:43.006Z,16.20
2022-10-25T11:22:17.529Z,16.07
2022-10-25T11:24:56.149Z,16.09
2022-10-25T11:27:25.843Z,16.24
2022-10-25T11:29:58.103Z,16.71
2022-10-25T11:32:51.202Z,16.06
2022-10-25T11:35:50.589Z,16.22
2022-10-25T11:38:26.148Z,16.28
2022-10-25T11:41:00.168Z,16.16
2022-10-25T11:43:26.142Z,16.22
2022-10-25T11:46:08.999Z,16.11
2022-10-25T11:48:47.932Z,16.39
2022-10-25T11:51:26.213Z,16.89
2022-10-25T11:54:14.169Z,17.59
2022-10-25T11:57:01.671Z,18.62
2022-10-25T12:00:06.445Z,18.40
2022-10-25T12:02:48.737Z,17.92
2022-10-25T12:05:32.195Z,18.50
2022-10-25T12:08:17.507Z,18.41
2022-10-25T12:10:49.084Z,18.31
2022-10-25T12:13:26.327Z,19.01
2022-10-25T12:15:54.842Z,16.65
2022-10-25T12:18:26.197Z,19.07
2022-10-25T12:20:53.453Z,17.98
2022-10-25T12:23:22.411Z,17.79
2022-10-25T12:25:59.087Z,17.76
2022-10-25T12:28:41.500Z,17.84
2022-10-25T12:31:16.643Z,18.39
2022-10-25T12:33:51.715Z,18.73
2022-10-25T12:36:38.831Z,18.29
2022-10-25T12:39:40.766Z,18.29
2022-10-25T12:42:23.110Z,17.86
2022-10-25T12:45:02.488Z,17.43
2022-10-25T12:47:59.406Z,17.89
2022-10-25T12:50:36.286Z,18.00
2022-10-25T12:53:02.266Z,17.78
2022-10-25T12:55:49.255Z,18.63
2022-10-25T12:58:18.385Z,18.32
2022-10-25T13:01:22.973Z,18.07
2022-10-25T13:04:05.214Z,19.05
2022-10-25T13:06:45.038Z,19.75
2022-10-25T13:09:13.764Z,19.70
2022-10-25T13:11:48.354Z,19.86
2022-10-25T13:14:50.967Z,19.48
2022-10-25T13:17:19.928Z,19.59
2022-10-25T13:19:55.089Z,19.46
2022-10-25T13:22:27.486Z,19.69
2022-10-25T13:24:54.402Z,18.66
2022-10-25T13:27:23.238Z,18.80
2022-10-25T13:30:06.783Z,19.03
2022-10-25T13:32:33.796Z,18.93
2022-10-25T13:35:03.013Z,18.95
2022-10-25T13:37:32.379Z,19.19
2022-10-25T13:39:59.617Z,18.88
2022-10-25T13:42:32.376Z,18.75
2022-10-25T13:45:04.171Z,18.38
2022-10-25T13:47:40.080Z,18.07
2022-10-25T13:50:26.173Z,17.65
2022-10-25T13:53:17.340Z,17.79
2022-10-25T13:55:56.764Z,16.88
2022-10-25T13:58:31.583Z,17.81
2022-10-25T14:01:16.771Z,17.83
2022-10-25T14:03:50.647Z,17.73
2022-10-25T14:06:36.826Z,17.66
2022-10-25T14:09:26.670Z,17.59
2022-10-25T14:11:58.867Z,17.56
2022-10-25T14:14:29.134Z,17.77
2022-10-25T14:17:20.993Z,17.71
2022-10-25T14:19:50.547Z,17.70
2022-10-25T14:22:34.807Z,17.48
2022-10-25T14:25:07.712Z,17.34
2022-10-25T14:27:35.808Z,17.33
2022-10-25T14:30:24.265Z,17.21
2022-10-25T14:33:19.558Z,17.45
2022-10-25T14:35:47.703Z,17.34
2022-10-25T14:38:15.587Z,17.36
2022-10-25T14:40:41.587Z,17.31
2022-10-25T14:43:18.160Z,17.00
2022-10-25T14:45:57.138Z,17.24
2022-10-25T14:48:23.248Z,17.26
2022-10-25T14:50:49.695Z,17.32
2022-10-25T14:53:16.386Z,17.35
2022-10-25T14:56:08.794Z,17.22
2022-10-25T14:58:40.399Z,17.17
2022-10-25T15:01:06.955Z,17.20
2022-10-25T15:03:39.689Z,17.18
2022-10-25T15:06:05.790Z,17.14
2022-10-25T15:08:35.838Z,14.45
2022-10-25T15:11:08.004Z,17.11
2022-10-25T15:13:41.702Z,17.04
2022-10-25T15:16:34.540Z,17.04
2022-10-25T15:19:09.855Z,16.95
2022-10-25T15:21:43.422Z,16.19
2022-10-25T15:24:26.864Z,16.57
2022-10-25T15:27:05.105Z,16.64
2022-10-25T15:29:40.193Z,16.63
2022-10-25T15:32:14.204Z,16.79
2022-10-25T15:34:42.444Z,16.28
2022-10-25T15:37:13.471Z,16.61
2022-10-25T15:39:40.109Z,16.12
2022-10-25T15:42:07.107Z,16.60
2022-10-25T15:44:34.531Z,16.70
2022-10-25T15:47:01.165Z,16.63
2022-10-25T15:49:27.264Z,16.63
2022-10-25T15:51:54.320Z,16.00
2022-10-25T15:54:22.075Z,16.54
2022-10-25T15:56:48.603Z,16.57
2022-10-25T16:01:50.094Z,16.52
2022-10-25T16:04:18.400Z,16.68
2022-10-25T16:06:44.960Z,16.36
2022-10-25T16:09:11.197Z,16.54
2022-10-25T16:11:39.540Z,16.38
2022-10-25T16:14:15.059Z,16.48
2022-10-25T16:16:42.169Z,16.40
2022-10-25T16:19:16.648Z,16.46
2022-10-25T16:21:43.376Z,16.44
2022-10-25T16:24:09.981Z,16.09
2022-10-25T16:26:40.267Z,16.30
2022-10-25T16:29:06.358Z,16.28
2022-10-25T16:31:32.369Z,16.12
2022-10-25T16:33:58.351Z,16.02
2022-10-25T16:36:24.392Z,16.22
2022-10-25T16:38:50.499Z,16.03
2022-10-25T16:41:25.576Z,16.02
2022-10-25T16:43:51.604Z,16.05
2022-10-25T16:46:17.928Z,15.98
2022-10-25T16:48:43.973Z,15.92
2022-10-25T16:51:14.130Z,15.60
2022-10-25T16:53:40.960Z,15.52
2022-10-25T16:56:08.503Z,14.80
2022-10-25T16:58:34.842Z,15.56
2022-10-25T17:01:00.890Z,15.58
2022-10-25T17:03:26.941Z,15.83
2022-10-25T17:05:52.980Z,15.69
2022-10-25T17:08:18.989Z,15.58
2022-10-25T17:10:46.117Z,15.72
2022-10-25T17:13:15.250Z,15.80
2022-10-25T17:15:41.963Z,15.81
2022-10-25T17:18:07.981Z,15.64
2022-10-25T17:20:34.582Z,14.58
2022-10-25T17:23:00.765Z,15.23
2022-10-25T17:25:27.566Z,14.84
2022-10-25T17:27:53.715Z,15.36
2022-10-25T17:30:20.046Z,15.48
2022-10-25T17:32:46.259Z,15.47
2022-10-25T17:35:12.532Z,15.46
2022-10-25T17:37:41.973Z,14.97
2022-10-25T17:40:10.381Z,15.06
2022-10-25T17:42:36.390Z,15.07
2022-10-25T17:45:02.837Z,15.06
2022-10-25T17:47:29.183Z,15.11
2022-10-25T17:50:00.026Z,14.08
2022-10-25T17:52:26.088Z,14.95
2022-10-25T17:54:52.078Z,14.60
2022-10-25T17:57:18.183Z,14.13
2022-10-25T17:59:44.215Z,14.93
2022-10-25T18:02:11.007Z,14.89
2022-10-25T18:04:53.393Z,14.99
2022-10-25T18:07:23.366Z,14.93
2022-10-25T18:09:49.393Z,14.98
2022-10-25T18:12:15.710Z,14.92
2022-10-25T18:14:41.789Z,15.01
2022-10-25T18:17:07.786Z,14.96
2022-10-25T18:19:33.813Z,14.66
2022-10-25T18:22:00.095Z,14.91
2022-10-25T18:24:28.395Z,14.86
2022-10-25T18:26:55.005Z,14.87
2022-10-25T18:29:21.268Z,14.79
2022-10-25T18:31:47.276Z,14.14
2022-10-25T18:34:13.283Z,14.24
2022-10-25T18:36:39.288Z,13.75
2022-10-25T18:39:05.347Z,14.43
2022-10-25T18:41:33.281Z,14.07
2022-10-25T18:44:00.198Z,14.62
2022-10-25T18:46:29.977Z,14.52
2022-10-25T18:48:57.839Z,14.45
2022-10-25T18:51:28.226Z,14.79
2022-10-25T18:53:56.002Z,14.90
2022-10-25T18:56:22.414Z,14.90
2022-10-25T18:58:48.878Z,14.91
2022-10-25T19:01:27.199Z,14.91
2022-10-25T19:03:55.359Z,14.82
2022-10-25T19:06:21.374Z,14.88
2022-10-25T19:08:48.663Z,14.89
2022-10-25T19:11:15.780Z,14.45
2022-10-25T19:13:45.096Z,14.83
2022-10-25T19:16:15.514Z,14.89
2022-10-25T19:18:41.672Z,14.03
2022-10-25T19:21:09.938Z,14.75
2022-10-25T19:23:38.426Z,14.81
2022-10-25T19:26:07.012Z,14.80
2022-10-25T19:28:33.704Z,14.70
2022-10-25T19:31:16.619Z,14.44
2022-10-25T19:33:46.767Z,14.70
2022-10-25T19:36:13.534Z,14.49
2022-10-25T19:38:39.733Z,14.15
2022-10-25T19:41:08.270Z,14.44
2022-10-25T19:43:35.540Z,14.56
2022-10-25T19:46:04.821Z,14.33
2022-10-25T19:48:31.295Z,14.39
2022-10-25T19:51:07.185Z,14.50
2022-10-25T19:53:33.631Z,14.46
2022-10-25T19:56:04.503Z,14.31
2022-10-25T19:58:30.546Z,13.40
2022-10-25T20:01:17.854Z,14.08
2022-10-25T20:03:44.834Z,13.70
2022-10-25T20:06:18.790Z,13.85
2022-10-25T20:08:47.843Z,13.75
2022-10-25T20:11:14.988Z,13.97
2022-10-25T20:13:41.034Z,13.22
2022-10-25T20:16:08.123Z,12.70
2022-10-25T20:18:36.458Z,13.05
2022-10-25T20:21:06.658Z,12.43
2022-10-25T20:23:33.679Z,13.34
2022-10-25T20:26:09.062Z,13.42
2022-10-25T20:28:35.071Z,13.32
2022-10-25T20:31:02.443Z,13.41
2022-10-25T20:33:28.523Z,13.56
2022-10-25T20:35:54.537Z,13.41
2022-10-25T20:38:20.629Z,13.11
2022-10-25T20:40:46.639Z,13.03
2022-10-25T20:43:12.649Z,13.47
2022-10-25T20:45:40.734Z,13.44
2022-10-25T20:48:06.710Z,12.99
2022-10-25T20:50:33.199Z,12.93
2022-10-25T20:53:09.697Z,13.00
2022-10-25T20:55:37.038Z,13.18
2022-10-25T20:58:03.062Z,13.20
2022-10-25T21:00:29.112Z,13.11
2022-10-25T21:02:55.382Z,13.10
2022-10-25T21:05:21.362Z,13.18
2022-10-25T21:07:47.720Z,12.87
2022-10-25T21:10:14.011Z,12.94
2022-10-25T21:12:40.025Z,12.39
2022-10-25T21:15:11.009Z,12.42
2022-10-25T21:17:38.179Z,10.70
2022-10-25T21:20:04.624Z,12.66
2022-10-25T21:22:30.613Z,12.20
2022-10-25T21:24:56.619Z,12.22
2022-10-25T21:27:22.688Z,11.95
2022-10-25T21:29:48.787Z,12.66
2022-10-25T21:32:14.809Z,12.63
2022-10-25T21:34:40.823Z,12.37
2022-10-25T21:37:06.857Z,12.29
2022-10-25T21:39:32.879Z,11.99
2022-10-25T21:41:58.929Z,12.13
2022-10-25T21:44:24.950Z,12.43
2022-10-25T21:46:51.011Z,11.92
2022-10-25T21:49:17.038Z,12.41
2022-10-25T21:51:43.126Z,12.11
2022-10-25T21:54:09.247Z,11.68
2022-10-25T21:56:35.309Z,11.80
2022-10-25T21:59:01.351Z,12.03
2022-10-25T22:01:28.934Z,12.10
2022-10-25T22:03:55.046Z,11.96
2022-10-25T22:06:23.235Z,12.13
2022-10-25T22:08:49.818Z,12.34
2022-10-25T22:11:21.656Z,12.41
2022-10-25T22:13:48.070Z,11.58
2022-10-25T22:16:18.014Z,12.31
2022-10-25T22:18:56.934Z,12.45
2022-10-25T22:21:23.815Z,12.04
2022-10-25T22:23:49.830Z,12.33
2022-10-25T22:26:17.675Z,12.32
2022-10-25T22:28:44.041Z,12.37
2022-10-25T22:31:15.362Z,12.04
2022-10-25T22:33:42.236Z,12.24
2022-10-25T22:36:10.784Z,12.06
2022-10-25T22:38:36.988Z,10.81
2022-10-25T22:41:05.378Z,12.10
2022-10-25T22:43:34.045Z,12.20
2022-10-25T22:46:01.164Z,11.96
2022-10-25T22:48:34.456Z,12.16
2022-10-25T22:51:00.619Z,12.29
2022-10-25T22:53:26.897Z,12.21
2022-10-25T22:55:57.219Z,12.13
2022-10-25T22:58:24.056Z,12.29
2022-10-25T23:00:50.360Z,11.22
2022-10-25T23:03:16.596Z,12.07
2022-10-25T23:05:42.648Z,12.22
2022-10-25T23:08:08.919Z,11.72
2022-10-25T23:10:34.907Z,11.63
2022-10-25T23:13:00.930Z,11.11
2022-10-25T23:15:26.932Z,11.65
2022-10-25T23:17:52.955Z,11.65
2022-10-25T23:20:18.964Z,10.90
2022-10-25T23:22:45.046Z,10.64
2022-10-25T23:25:11.102Z,11.62
2022-10-25T23:27:37.111Z,11.82
2022-10-25T23:30:03.359Z,10.95
2022-10-25T23:32:29.358Z,11.02
2022-10-25T23:34:57.075Z,11.41
2022-10-25T23:37:23.259Z,11.79
2022-10-25T23:39:49.279Z,11.92
2022-10-25T23:42:15.280Z,11.82
2022-10-25T23:44:41.274Z,10.87
2022-10-25T23:47:07.273Z,11.38
2022-10-25T23:49:33.258Z,11.14
2022-10-25T23:51:59.255Z,11.26
2022-10-25T23:54:25.261Z,11.52
2022-10-25T23:56:51.232Z,11.52
2022-10-25T23:59:17.259Z,11.65
